This is the latest recevied weather packets stored in our database for station/object IK6IHU-3. If no packets are shown the sender has not sent any weather packets the latest 10 day(s).
| Time | Temp. | Humidity | Pressure | Rain* | Wind** | Luminosity | Snow |
|---|---|---|---|---|---|---|---|
| 1777717756 | 15.56° C | 40% | 1023.3 hPa | 0 mm | - | 0 W/m² | - |
| 1777717696 | 16.11° C | 42% | 1023.2 hPa | 0 mm | - | 0 W/m² | - |
| 1777717635 | 16.67° C | 43% | 1023.3 hPa | 0 mm | - | 0 W/m² | - |
| 1777717576 | 16.67° C | 43% | 1023.2 hPa | 0 mm | - | 0 W/m² | - |
| 1777717516 | 16.11° C | 42% | 1023.2 hPa | 0 mm | - | 0 W/m² | - |
| 1777717456 | 16.11° C | 42% | 1023.3 hPa | 0 mm | - | 0 W/m² | - |
| 1777717396 | 16.11° C | 43% | 1023.4 hPa | 0 mm | - | 0 W/m² | - |
| 1777717336 | 16.11° C | 43% | 1023.3 hPa | 0 mm | - | 0 W/m² | - |
| 1777717276 | 16.11° C | 42% | 1023.7 hPa | 0 mm | - | 0 W/m² | - |
| 1777717215 | 16.67° C | 44% | 1023.5 hPa | 0 mm | - | 0 W/m² | - |
| 1777717156 | 15.56° C | 38% | 1023.5 hPa | 0 mm | - | 0 W/m² | - |
| 1777717096 | 16.11° C | 40% | 1023.5 hPa | 0 mm | - | 0 W/m² | - |
| 1777717035 | 16.11° C | 44% | 1023.5 hPa | 0 mm | - | 0 W/m² | - |
| 1777716976 | 16.11° C | 43% | 1023.3 hPa | 0 mm | - | 0 W/m² | - |
| 1777716916 | 16.11° C | 41% | 1023.2 hPa | 0 mm | - | 0 W/m² | - |
| 1777716856 | 16.11° C | 43% | 1023.4 hPa | 0 mm | - | 0 W/m² | - |
| 1777716796 | 16.11° C | 43% | 1023.4 hPa | 0 mm | - | 0 W/m² | - |
| 1777716736 | 16.11° C | 42% | 1023.4 hPa | 0 mm | - | 0 W/m² | - |
| 1777716675 | 16.11° C | 44% | 1023.4 hPa | 0 mm | - | 0 W/m² | - |
| 1777716616 | 16.11° C | 44% | 1023.4 hPa | 0 mm | - | 0 W/m² | - |
| 1777716556 | 15.56° C | 44% | 1023.4 hPa | 0 mm | - | 0 W/m² | - |
| 1777716495 | 15.56° C | 42% | 1023.5 hPa | 0 mm | - | 0 W/m² | - |
| 1777716436 | 15.56° C | 43% | 1023.4 hPa | 0 mm | - | 0 W/m² | - |
| 1777716376 | 15.56° C | 44% | 1023.5 hPa | 0 mm | - | 0 W/m² | - |
| 1777716316 | 15.56° C | 42% | 1023.5 hPa | 0 mm | - | 0 W/m² | - |
* Rain latest hour (hover to see other rain measurements)
** Current wind speed in m/s (hover to see current wind gust speed)